Time;durP1;ratioP1;P1;durP2;ratioP2;P2;SDS_P1;SDS_P2;PMS_P1;PMS_P2;Temp;Humidity;BMP_temperature;BMP_pressure;BME280_temperature;BME280_humidity;BME280_pressure;Samples;Min_cycle;Max_cycle;Signal;HPM_P1;HPM_P2
2021/10/22 00:00:08;;;;;;;12.82;8.55;;;;;;;12.36;61.16;96697.00;5073812;28;20052;-59
2021/10/22 00:02:38;;;;;;;12.30;8.60;;;;;;;12.35;61.20;96678.72;5073228;28;20044;-61
2021/10/22 00:05:04;;;;;;;14.98;8.73;;;;;;;12.33;61.20;96652.47;5073487;28;20044;-62
2021/10/22 00:07:30;;;;;;;16.35;8.32;;;;;;;12.30;61.17;96662.97;5073051;28;20089;-61
2021/10/22 00:09:57;;;;;;;14.95;8.68;;;;;;;12.31;61.29;96664.50;5072843;28;20064;-61
2021/10/22 00:12:24;;;;;;;12.27;8.43;;;;;;;12.30;61.55;96647.81;5072946;28;20131;-61
2021/10/22 00:14:49;;;;;;;16.23;9.38;;;;;;;12.25;61.54;96672.63;5073044;28;20536;-61
2021/10/22 00:17:16;;;;;;;13.77;9.00;;;;;;;12.26;61.74;96670.75;5073048;28;20048;-62
2021/10/22 00:19:42;;;;;;;12.35;8.75;;;;;;;12.24;61.69;96665.00;5072897;28;20036;-61
2021/10/22 00:22:07;;;;;;;14.13;8.60;;;;;;;12.21;61.83;96689.53;5073483;28;20047;-63
2021/10/22 00:24:33;;;;;;;13.30;8.90;;;;;;;12.18;61.87;96684.84;5072827;28;20044;-62
2021/10/22 00:26:59;;;;;;;13.73;8.35;;;;;;;12.18;61.84;96666.25;5072947;28;20055;-62
2021/10/22 00:29:25;;;;;;;14.32;8.52;;;;;;;12.17;61.99;96677.94;5071444;28;20050;-61
2021/10/22 00:31:51;;;;;;;13.02;8.95;;;;;;;12.18;61.86;96674.22;5072863;28;20509;-62
2021/10/22 00:34:16;;;;;;;12.57;9.32;;;;;;;12.17;62.13;96652.16;5073101;28;20048;-60
2021/10/22 00:36:42;;;;;;;12.85;9.23;;;;;;;12.11;62.03;96677.31;5072854;28;20132;-62
2021/10/22 00:39:10;;;;;;;21.05;9.32;;;;;;;12.09;62.18;96684.84;5072950;28;20086;-60
2021/10/22 00:41:38;;;;;;;13.63;8.52;;;;;;;12.07;62.43;96687.03;5072464;28;20076;-61
2021/10/22 00:44:04;;;;;;;13.82;8.65;;;;;;;12.07;62.36;96665.78;5072830;28;20047;-60
2021/10/22 00:46:31;;;;;;;13.82;8.70;;;;;;;12.07;62.24;96679.06;5072420;28;20052;-62
2021/10/22 00:48:58;;;;;;;14.10;8.95;;;;;;;12.02;62.30;96685.28;5072688;28;20056;-61
2021/10/22 00:51:24;;;;;;;14.90;8.82;;;;;;;12.03;62.13;96670.16;5054326;28;20045;-62
2021/10/22 00:53:50;;;;;;;13.27;8.43;;;;;;;12.08;62.07;96662.03;5072652;28;20062;-61
2021/10/22 00:56:16;;;;;;;14.27;8.40;;;;;;;12.11;61.69;96677.31;5071056;28;20045;-63
2021/10/22 00:58:43;;;;;;;13.25;8.50;;;;;;;12.12;61.69;96662.16;5072597;28;20032;-61
2021/10/22 01:01:09;;;;;;;14.05;8.35;;;;;;;12.11;61.81;96677.31;5072160;28;20051;-61
2021/10/22 01:03:35;;;;;;;11.57;8.40;;;;;;;12.13;61.78;96675.16;5072449;28;20037;-60
2021/10/22 01:06:02;;;;;;;12.18;8.38;;;;;;;12.11;61.81;96671.25;5071949;28;20502;-61
2021/10/22 01:08:34;;;;;;;13.95;8.35;;;;;;;12.12;62.00;96651.53;5053712;28;20506;-61
2021/10/22 01:11:01;;;;;;;12.93;8.75;;;;;;;12.09;61.85;96634.41;5070399;28;20045;-61
2021/10/22 01:13:28;;;;;;;12.55;8.38;;;;;;;12.08;61.85;96647.97;5072295;28;20036;-60
2021/10/22 01:15:54;;;;;;;12.93;8.57;;;;;;;12.03;62.19;96656.91;5070800;28;20041;-61
2021/10/22 01:18:20;;;;;;;12.45;8.07;;;;;;;12.05;62.11;96670.63;5071833;28;20048;-62
2021/10/22 01:20:46;;;;;;;13.02;8.80;;;;;;;12.05;62.18;96681.22;5071979;28;20056;-60
2021/10/22 01:23:12;;;;;;;12.43;8.57;;;;;;;12.02;62.29;96672.00;5070472;28;20032;-62
2021/10/22 01:25:38;;;;;;;15.82;8.82;;;;;;;12.06;61.98;96664.22;5071804;28;20052;-61
2021/10/22 01:28:06;;;;;;;12.77;8.75;;;;;;;12.04;62.34;96664.53;5071912;28;20032;-61
2021/10/22 01:30:32;;;;;;;13.35;8.73;;;;;;;12.02;61.98;96666.72;5071614;28;20077;-61
2021/10/22 01:33:06;;;;;;;16.15;8.30;;;;;;;12.01;62.30;96667.81;5071726;28;20036;-61
2021/10/22 01:35:32;;;;;;;22.05;8.98;;;;;;;11.98;62.51;96687.03;5053803;28;20194;-61
2021/10/22 01:37:57;;;;;;;14.80;8.20;;;;;;;11.97;62.59;96679.34;5070159;28;20127;-60
2021/10/22 01:40:23;;;;;;;13.18;8.65;;;;;;;11.96;62.39;96662.66;5071993;28;20458;-61
2021/10/22 01:42:49;;;;;;;11.77;8.77;;;;;;;11.98;62.78;96657.03;5071231;28;20174;-61
2021/10/22 01:45:16;;;;;;;18.48;9.13;;;;;;;11.94;62.72;96664.06;5071611;28;20181;-60
2021/10/22 01:47:42;;;;;;;10.80;8.00;;;;;;;11.91;62.69;96676.09;5071064;28;20047;-61
2021/10/22 01:50:08;;;;;;;13.07;8.52;;;;;;;11.88;62.86;96684.66;5071474;28;20044;-61
2021/10/22 01:52:34;;;;;;;12.10;8.40;;;;;;;11.87;62.98;96682.34;5071172;28;20127;-60
2021/10/22 01:55:01;;;;;;;19.30;9.25;;;;;;;11.88;62.96;96673.25;5070018;28;20048;-61
2021/10/22 01:57:27;;;;;;;14.68;8.45;;;;;;;11.89;62.98;96680.16;5053335;28;20089;-60
2021/10/22 01:59:53;;;;;;;10.77;7.90;;;;;;;11.91;62.93;96683.25;5071087;28;20595;-61
2021/10/22 02:02:19;;;;;;;15.57;8.55;;;;;;;11.91;62.71;96676.09;5069898;28;20046;-61
2021/10/22 02:04:45;;;;;;;14.95;8.80;;;;;;;11.92;62.74;96674.22;5069673;28;20076;-61
2021/10/22 02:07:11;;;;;;;14.93;8.82;;;;;;;11.86;62.96;96667.50;5071363;28;20173;-61
2021/10/22 02:09:37;;;;;;;14.10;8.75;;;;;;;11.89;62.87;96678.28;5070773;28;20068;-61
2021/10/22 02:12:04;;;;;;;17.05;9.00;;;;;;;11.93;62.87;96675.78;5070741;28;20041;-60
2021/10/22 02:14:30;;;;;;;16.17;8.85;;;;;;;11.91;62.91;96665.47;5071517;28;20040;-59
2021/10/22 02:16:56;;;;;;;13.05;8.65;;;;;;;11.83;63.15;96674.97;5069946;28;20048;-62
2021/10/22 02:19:24;;;;;;;13.80;8.50;;;;;;;11.83;63.14;96669.66;5071303;28;20055;-61
2021/10/22 02:21:50;;;;;;;10.75;8.27;;;;;;;11.87;63.03;96680.44;5070998;28;20040;-61
2021/10/22 02:24:16;;;;;;;13.77;8.88;;;;;;;11.87;63.27;96679.69;5071167;28;20040;-60
2021/10/22 02:26:42;;;;;;;15.32;8.85;;;;;;;11.88;63.14;96675.91;5069564;28;20123;-62
2021/10/22 02:29:07;;;;;;;15.18;9.00;;;;;;;11.89;63.21;96672.97;5069639;28;20123;-60
2021/10/22 02:31:33;;;;;;;14.68;8.85;;;;;;;11.90;63.16;96687.78;5070917;28;20052;-59
2021/10/22 02:33:59;;;;;;;16.00;8.88;;;;;;;11.86;63.48;96688.75;5071039;28;20109;-61
2021/10/22 02:36:25;;;;;;;12.38;8.57;;;;;;;11.87;63.19;96677.81;5071385;28;20047;-61
2021/10/22 02:38:51;;;;;;;13.68;9.02;;;;;;;11.88;63.13;96689.19;5070565;28;20628;-62
2021/10/22 02:41:17;;;;;;;15.02;10.00;;;;;;;11.90;63.46;96684.38;5070755;28;20044;-60
2021/10/22 02:43:45;;;;;;;14.38;8.65;;;;;;;11.89;63.25;96694.19;5069591;28;20044;-61
2021/10/22 02:46:11;;;;;;;15.52;9.32;;;;;;;11.86;63.40;96694.81;5070999;28;20048;-60
2021/10/22 02:48:36;;;;;;;15.00;9.05;;;;;;;11.86;63.45;96689.53;5070878;28;20123;-60
2021/10/22 02:51:02;;;;;;;13.13;8.85;;;;;;;11.89;63.44;96701.38;5036681;28;20132;-61
2021/10/22 02:53:28;;;;;;;15.85;8.60;;;;;;;11.88;63.40;96700.59;5071086;28;20044;-60
2021/10/22 02:55:54;;;;;;;13.40;8.32;;;;;;;11.88;63.24;96699.81;5069465;28;20575;-61
2021/10/22 02:58:20;;;;;;;13.82;8.63;;;;;;;11.87;63.73;96698.25;5070849;28;20075;-60
2021/10/22 03:00:48;;;;;;;15.35;8.70;;;;;;;11.85;63.80;96682.63;5070931;28;20593;-61
2021/10/22 03:03:14;;;;;;;13.23;9.10;;;;;;;11.85;63.46;96687.94;5069212;28;20255;-60
2021/10/22 03:05:41;;;;;;;15.38;9.27;;;;;;;11.90;63.34;96690.44;5070777;28;20045;-61
2021/10/22 03:08:08;;;;;;;17.30;9.40;;;;;;;11.91;63.67;96701.84;5070231;28;20398;-60
2021/10/22 03:10:34;;;;;;;13.45;8.77;;;;;;;11.90;63.79;96700.28;5070919;28;20476;-61
2021/10/22 03:13:01;;;;;;;16.13;9.80;;;;;;;11.90;63.53;96700.28;5069252;28;20466;-61
2021/10/22 03:15:27;;;;;;;17.23;9.40;;;;;;;11.95;63.63;96700.13;5070609;28;20049;-61
2021/10/22 03:17:55;;;;;;;14.25;9.32;;;;;;;11.97;63.63;96696.09;5068882;28;20551;-60
2021/10/22 03:20:21;;;;;;;14.77;9.10;;;;;;;11.97;63.36;96689.97;5070597;28;20056;-60
2021/10/22 03:22:47;;;;;;;16.02;10.80;;;;;;;12.00;63.31;96679.53;5070372;28;20044;-61
2021/10/22 03:25:13;;;;;;;15.13;9.25;;;;;;;11.98;63.38;96687.03;5070373;28;20048;-62
2021/10/22 03:27:40;;;;;;;14.38;9.63;;;;;;;11.99;63.42;96683.25;5070226;28;20128;-60
2021/10/22 03:30:06;;;;;;;15.13;9.32;;;;;;;12.04;63.40;96685.00;5070399;28;20052;-60
2021/10/22 03:32:33;;;;;;;13.95;9.63;;;;;;;12.05;63.35;96689.97;5071291;28;20041;-63
2021/10/22 03:35:00;;;;;;;19.98;9.15;;;;;;;12.06;63.57;96688.13;5073721;28;20045;-60
2021/10/22 03:37:26;;;;;;;15.50;9.13;;;;;;;12.06;63.18;96688.13;5073705;28;20072;-61
2021/10/22 03:39:52;;;;;;;14.25;9.02;;;;;;;12.10;63.26;96682.97;5073776;28;20474;-61
2021/10/22 03:42:18;;;;;;;15.30;9.40;;;;;;;12.10;63.08;96675.00;5073709;28;20071;-61
2021/10/22 03:44:44;;;;;;;12.80;8.93;;;;;;;12.13;63.20;96679.69;5073754;28;20177;-60
2021/10/22 03:47:10;;;;;;;13.25;10.18;;;;;;;12.16;63.11;96689.69;5073701;28;20051;-61
2021/10/22 03:49:36;;;;;;;15.60;10.18;;;;;;;12.14;63.11;96678.59;5073224;28;20062;-61
2021/10/22 03:52:02;;;;;;;17.45;9.43;;;;;;;12.14;63.05;96667.97;5055689;28;20040;-62
2021/10/22 03:54:27;;;;;;;20.42;9.95;;;;;;;12.12;63.32;96664.81;5073749;28;20036;-61
2021/10/22 03:56:56;;;;;;;14.75;8.88;;;;;;;12.12;63.21;96670.13;5073977;28;20052;-60
2021/10/22 03:59:22;;;;;;;11.95;9.35;;;;;;;12.05;63.21;96652.03;5073503;28;20036;-61
2021/10/22 04:01:49;;;;;;;14.70;8.80;;;;;;;12.04;63.47;96663.75;5071956;28;20113;-61
2021/10/22 04:04:15;;;;;;;18.15;9.80;;;;;;;12.03;63.45;96662.19;5073749;28;20399;-61
2021/10/22 04:06:41;;;;;;;16.15;10.52;;;;;;;12.01;63.69;96670.47;5073232;28;20083;-63
2021/10/22 04:09:08;;;;;;;13.57;9.77;;;;;;;11.99;63.51;96677.94;5073060;28;20087;-61
2021/10/22 04:11:34;;;;;;;16.80;9.60;;;;;;;11.99;63.58;96685.13;5072077;28;20055;-62
2021/10/22 04:14:01;;;;;;;20.52;9.82;;;;;;;11.95;63.74;96676.25;5073216;28;20040;-62
2021/10/22 04:16:28;;;;;;;15.02;10.20;;;;;;;11.98;63.72;96678.28;5073146;28;20056;-61
2021/10/22 04:18:54;;;;;;;18.20;10.45;;;;;;;11.96;63.51;96683.88;5073190;28;20068;-61
2021/10/22 04:21:20;;;;;;;15.07;9.57;;;;;;;11.96;63.73;96681.22;5073384;28;20129;-59
2021/10/22 04:23:46;;;;;;;15.25;10.18;;;;;;;11.97;63.90;96685.47;5071408;28;20044;-61
2021/10/22 04:26:12;;;;;;;13.38;9.05;;;;;;;12.00;63.80;96689.34;5055071;28;20033;-61
2021/10/22 04:28:38;;;;;;;16.50;10.50;;;;;;;12.02;63.76;96685.28;5072731;28;20539;-60
2021/10/22 04:31:04;;;;;;;16.50;9.75;;;;;;;12.01;63.64;96691.69;5072942;28;20048;-60
2021/10/22 04:33:30;;;;;;;13.32;9.85;;;;;;;11.98;63.92;96688.91;5071334;28;20037;-61
2021/10/22 04:35:56;;;;;;;13.38;9.63;;;;;;;12.01;63.63;96683.75;5072894;28;20051;-61
2021/10/22 04:40:55;;;;;;;16.65;10.50;;;;;;;12.07;63.56;96694.22;5072667;28;20135;-61
2021/10/22 04:43:22;;;;;;;13.75;9.70;;;;;;;12.09;63.75;96702.63;5072434;28;20044;-62
2021/10/22 04:45:50;;;;;;;14.40;9.90;;;;;;;12.14;63.15;96699.81;5054962;28;20044;-61
2021/10/22 04:48:16;;;;;;;15.05;9.75;;;;;;;12.16;63.30;96687.03;5072379;28;20025;-60
2021/10/22 04:50:47;;;;;;;13.95;10.07;;;;;;;12.18;63.20;96693.59;5072541;28;20102;-61
2021/10/22 04:53:13;;;;;;;16.02;9.73;;;;;;;12.22;63.14;96691.06;5071933;28;20040;-62
2021/10/22 04:55:40;;;;;;;14.00;9.95;;;;;;;12.24;62.97;96694.22;5072890;28;20044;-61
2021/10/22 04:58:06;;;;;;;16.38;10.18;;;;;;;12.25;63.16;96704.50;5070877;28;20037;-61
2021/10/22 05:00:32;;;;;;;14.63;9.73;;;;;;;12.26;62.99;96716.72;5070700;28;20045;-61
2021/10/22 05:02:58;;;;;;;17.70;11.27;;;;;;;12.31;62.91;96709.66;5072139;28;20482;-61
2021/10/22 05:05:23;;;;;;;17.63;10.13;;;;;;;12.36;62.78;96715.59;5070895;28;20055;-62
2021/10/22 05:07:49;;;;;;;18.02;10.25;;;;;;;12.35;62.78;96710.59;5072116;28;20064;-63
2021/10/22 05:10:15;;;;;;;15.60;9.48;;;;;;;12.39;62.47;96736.22;5071253;28;20521;-63
2021/10/22 05:12:41;;;;;;;13.73;10.00;;;;;;;12.40;62.72;96729.81;5071479;28;20044;-61
2021/10/22 05:15:09;;;;;;;16.42;9.98;;;;;;;12.44;62.50;96736.06;5072071;28;20115;-63
2021/10/22 05:17:36;;;;;;;14.65;9.52;;;;;;;12.52;62.57;96741.69;5070248;28;20032;-62
2021/10/22 05:20:04;;;;;;;15.80;10.20;;;;;;;12.56;62.51;96763.88;5071736;28;20063;-61
2021/10/22 05:22:30;;;;;;;16.52;9.95;;;;;;;12.62;62.39;96755.44;5071364;28;20406;-62
2021/10/22 05:24:56;;;;;;;13.82;9.52;;;;;;;12.61;62.16;96774.34;5071012;28;20042;-61
2021/10/22 05:27:22;;;;;;;17.15;9.77;;;;;;;12.57;62.88;96774.19;5071640;28;20044;-61
2021/10/22 05:29:48;;;;;;;17.40;10.60;;;;;;;12.50;64.71;96779.97;5071209;28;20105;-60
2021/10/22 05:32:13;;;;;;;17.23;10.20;;;;;;;12.46;65.90;96787.00;5070345;28;20044;-61
2021/10/22 05:34:39;;;;;;;13.20;10.05;;;;;;;12.33;66.12;96801.22;5070608;28;20382;-61
2021/10/22 05:37:05;;;;;;;14.70;9.80;;;;;;;12.19;67.50;96821.84;5070341;28;20029;-61
2021/10/22 05:39:31;;;;;;;15.13;11.27;;;;;;;12.09;68.81;96820.25;5071936;28;20226;-61
2021/10/22 05:41:57;;;;;;;14.43;10.40;;;;;;;11.94;69.20;96818.03;5071571;28;20067;-61
2021/10/22 05:44:23;;;;;;;12.85;9.20;;;;;;;11.90;69.63;96807.25;5071852;28;20131;-61
2021/10/22 05:46:53;;;;;;;10.20;7.70;;;;;;;11.85;69.69;96819.84;5071559;28;20078;-62
2021/10/22 05:49:20;;;;;;;13.55;8.50;;;;;;;11.85;69.67;96819.84;5071177;28;20045;-62
2021/10/22 05:51:46;;;;;;;18.85;8.77;;;;;;;11.82;69.79;96816.72;5071419;28;20070;-63
2021/10/22 05:54:12;;;;;;;10.20;7.15;;;;;;;11.81;69.49;96807.19;5070118;28;20525;-62
2021/10/22 05:56:38;;;;;;;9.95;6.95;;;;;;;11.78;69.68;96818.41;5070819;28;20083;-63
2021/10/22 05:59:04;;;;;;;10.30;6.63;;;;;;;11.76;69.58;96825.91;5071164;28;20456;-64
2021/10/22 06:01:29;;;;;;;12.32;7.22;;;;;;;11.76;69.90;96817.94;5071074;28;20567;-66
2021/10/22 06:03:56;;;;;;;8.75;6.20;;;;;;;11.78;69.29;96828.25;5071142;28;20114;-66
2021/10/22 06:06:22;;;;;;;8.93;5.82;;;;;;;11.78;70.10;96828.25;5071123;28;20059;-65
2021/10/22 06:08:48;;;;;;;7.05;5.80;;;;;;;11.79;70.12;96833.28;5070138;28;20137;-65
2021/10/22 06:11:14;;;;;;;10.75;7.45;;;;;;;11.72;70.20;96834.78;5071464;28;20494;-67
2021/10/22 06:13:42;;;;;;;11.48;5.32;;;;;;;11.73;70.26;96842.44;5066662;28;20040;-64
2021/10/22 06:16:10;;;;;;;10.02;4.90;;;;;;;11.75;69.99;96837.63;5069017;28;20059;-65
2021/10/22 06:18:44;;;;;;;6.85;4.35;;;;;;;11.75;70.29;96844.78;5068334;28;20055;-65
2021/10/22 06:23:56;;;;;;;7.18;4.35;;;;;;;11.77;70.63;96845.28;5051588;28;20048;-64
2021/10/22 06:26:24;;;;;;;7.13;3.95;;;;;;;11.77;70.55;96840.75;5051210;28;20049;-65
2021/10/22 06:28:52;;;;;;;6.30;3.88;;;;;;;11.75;70.00;96836.84;5067027;28;20063;-63
2021/10/22 06:31:19;;;;;;;5.20;3.90;;;;;;;11.85;69.71;96846.38;5018654;28;20280;-64
2021/10/22 06:33:45;;;;;;;6.20;3.70;;;;;;;11.90;69.05;96847.06;5069571;28;20048;-65
2021/10/22 06:36:11;;;;;;;6.65;3.63;;;;;;;12.01;68.45;96836.94;5068600;28;20056;-65
2021/10/22 06:38:37;;;;;;;8.05;3.65;;;;;;;12.10;67.75;96843.06;5066692;28;20036;-63
2021/10/22 06:41:04;;;;;;;4.65;3.22;;;;;;;12.22;67.77;96847.78;5066555;28;20048;-65
2021/10/22 06:43:31;;;;;;;7.53;3.95;;;;;;;12.29;67.07;96840.13;5065040;28;20075;-64
2021/10/22 06:45:57;;;;;;;5.28;3.50;;;;;;;12.41;66.72;96850.13;5052044;28;20077;-64
2021/10/22 06:48:23;;;;;;;7.00;3.50;;;;;;;12.32;66.46;96855.44;5067014;28;20036;-65
2021/10/22 06:50:49;;;;;;;4.63;3.20;;;;;;;12.20;67.10;96856.03;5068083;28;20137;-64
2021/10/22 06:53:14;;;;;;;6.30;3.42;;;;;;;12.12;67.07;96863.97;5069027;28;20044;-65
2021/10/22 06:55:40;;;;;;;7.03;3.80;;;;;;;12.09;67.46;96860.09;5068210;28;20127;-65
2021/10/22 06:58:06;;;;;;;5.95;3.90;;;;;;;12.02;68.18;96854.44;5065779;28;20102;-64
2021/10/22 07:00:33;;;;;;;5.20;3.90;;;;;;;12.03;67.98;96861.31;5065621;28;20053;-64
2021/10/22 07:02:59;;;;;;;5.65;3.70;;;;;;;12.02;68.25;96873.03;5067322;28;20436;-66
2021/10/22 07:08:00;;;;;;;7.05;4.63;;;;;;;12.10;68.41;96877.56;5065067;28;20040;-65
2021/10/22 07:10:28;;;;;;;7.85;5.13;;;;;;;12.19;68.36;96872.28;5069887;28;20044;-65
2021/10/22 07:12:54;;;;;;;6.10;4.90;;;;;;;12.28;68.09;96884.50;5069732;28;20036;-64
2021/10/22 07:15:20;;;;;;;7.68;4.97;;;;;;;12.33;68.06;96886.22;5070512;28;20101;-65
2021/10/22 07:17:47;;;;;;;9.55;5.40;;;;;;;12.23;68.00;96884.63;5070743;28;20040;-63
2021/10/22 07:20:13;;;;;;;10.40;6.03;;;;;;;12.24;67.64;96894.19;5070512;28;20052;-66
2021/10/22 07:25:15;;;;;;;9.30;3.95;;;;;;;12.01;64.91;96892.72;5062524;28;20044;-65
2021/10/22 07:27:41;;;;;;;5.28;3.22;;;;;;;11.92;63.74;96882.06;5070036;28;20615;-64
2021/10/22 07:30:08;;;;;;;6.28;3.22;;;;;;;11.93;63.47;96877.53;5069643;28;20074;-65
2021/10/22 07:32:34;;;;;;;9.10;3.20;;;;;;;12.02;62.07;96889.72;5070499;28;20123;-64
2021/10/22 07:35:00;;;;;;;7.38;2.40;;;;;;;12.19;60.85;96875.72;5070336;28;20139;-64
2021/10/22 07:37:26;;;;;;;3.42;1.88;;;;;;;12.40;59.30;96881.22;5071557;28;20524;-65
2021/10/22 07:39:51;;;;;;;3.40;2.38;;;;;;;12.58;57.27;96881.25;5071063;28;20090;-64
2021/10/22 07:42:17;;;;;;;3.30;2.00;;;;;;;12.68;56.08;96878.31;5052052;28;20516;-65
2021/10/22 07:44:44;;;;;;;3.47;2.05;;;;;;;12.81;55.89;96893.31;5071358;28;20049;-65
2021/10/22 07:47:10;;;;;;;2.22;1.80;;;;;;;12.84;55.72;96889.25;5069746;28;20515;-64
2021/10/22 07:49:35;;;;;;;2.90;1.80;;;;;;;12.79;55.66;96878.78;5069021;28;20167;-66
2021/10/22 07:52:02;;;;;;;4.70;1.60;;;;;;;12.65;55.61;96873.63;5072263;28;20046;-66
2021/10/22 07:54:27;;;;;;;1.40;1.20;;;;;;;12.52;55.25;96875.31;5070100;28;20143;-64
2021/10/22 07:56:53;;;;;;;2.50;1.27;;;;;;;12.41;54.86;96888.13;5070254;28;20131;-67
2021/10/22 07:59:19;;;;;;;3.33;1.20;;;;;;;12.35;54.62;96886.69;5070755;28;20037;-65
2021/10/22 08:01:45;;;;;;;2.00;1.10;;;;;;;12.30;54.68;96883.41;5070405;28;20056;-66
2021/10/22 08:04:11;;;;;;;1.65;1.40;;;;;;;12.38;54.00;96894.06;5052619;28;20425;-66
2021/10/22 08:06:38;;;;;;;3.33;1.25;;;;;;;12.51;53.83;96892.34;5070394;28;20041;-67
2021/10/22 08:09:05;;;;;;;2.10;1.02;;;;;;;12.63;53.26;96897.06;5070908;28;20065;-64
2021/10/22 08:11:31;;;;;;;2.53;1.30;;;;;;;12.73;53.59;96902.06;5069931;28;20051;-68
2021/10/22 08:13:58;;;;;;;1.77;1.20;;;;;;;12.94;52.25;96891.59;5069808;28;20040;-67
2021/10/22 08:16:24;;;;;;;2.80;1.40;;;;;;;13.09;52.30;96904.44;5053294;28;20056;-68
2021/10/22 08:18:51;;;;;;;2.25;1.20;;;;;;;13.31;51.18;96908.03;5070092;28;20044;-68
2021/10/22 08:24:10;;;;;;;1.63;1.00;;;;;;;13.45;50.63;96913.97;5070548;28;20041;-70
2021/10/22 08:26:36;;;;;;;1.15;0.95;;;;;;;13.40;50.22;96911.47;5069826;28;20059;-68
2021/10/22 08:29:03;;;;;;;1.30;0.98;;;;;;;13.41;50.15;96915.66;5069430;28;20043;-66
2021/10/22 08:31:29;;;;;;;2.45;0.90;;;;;;;13.37;50.02;96920.84;5068669;28;20036;-62
2021/10/22 08:33:54;;;;;;;2.47;1.20;;;;;;;13.34;50.05;96920.72;5067288;28;20037;-62
2021/10/22 08:36:20;;;;;;;3.53;1.27;;;;;;;13.38;50.19;96905.66;5069313;28;20059;-63
2021/10/22 08:38:46;;;;;;;1.05;1.00;;;;;;;13.43;49.67;96902.84;5071016;28;20559;-63
2021/10/22 08:41:15;;;;;;;2.03;1.05;;;;;;;13.41;49.14;96913.00;5068014;28;20044;-63
2021/10/22 08:43:41;;;;;;;2.90;1.17;;;;;;;13.45;49.09;96907.88;5069119;28;20040;-63
2021/10/22 08:46:13;;;;;;;2.53;1.10;;;;;;;13.40;48.56;96912.22;5069125;28;20036;-63
2021/10/22 08:48:40;;;;;;;3.35;1.30;;;;;;;13.42;48.71;96913.81;5068386;28;20052;-62
2021/10/22 08:51:06;;;;;;;1.70;1.00;;;;;;;13.56;48.51;96917.84;5069805;28;20398;-62
2021/10/22 08:53:32;;;;;;;1.33;1.10;;;;;;;13.60;48.58;96907.34;5068320;28;20086;-64
2021/10/22 08:55:59;;;;;;;2.47;1.40;;;;;;;13.68;48.88;96898.56;5068349;28;20044;-62
2021/10/22 08:58:30;;;;;;;4.70;1.17;;;;;;;13.61;48.83;96901.69;5064531;28;20040;-62
2021/10/22 09:00:55;;;;;;;3.30;1.30;;;;;;;13.64;48.47;96900.28;5050773;28;20041;-65
2021/10/22 09:03:21;;;;;;;2.15;1.25;;;;;;;13.61;48.56;96891.06;5055411;28;20036;-62
2021/10/22 09:06:01;;;;;;;1.85;1.30;;;;;;;13.60;48.39;96883.41;5070080;28;20040;-67
2021/10/22 09:08:35;;;;;;;4.70;1.40;;;;;;;13.66;48.42;96882.13;5069665;28;20461;-63
2021/10/22 09:11:03;;;;;;;4.50;1.90;;;;;;;13.66;48.20;96884.00;5068018;28;20072;-63
2021/10/22 09:13:34;;;;;;;3.88;1.70;;;;;;;13.66;48.33;96899.97;5069342;28;20040;-65
2021/10/22 09:16:20;;;;;;;2.95;1.83;;;;;;;13.69;48.51;96897.47;5070396;28;20051;-63
2021/10/22 09:18:46;;;;;;;2.53;1.50;;;;;;;13.69;48.44;96900.13;5066734;28;20135;-63
2021/10/22 09:21:12;;;;;;;2.58;1.45;;;;;;;13.75;47.96;96896.19;5069855;28;20186;-63
2021/10/22 09:23:41;;;;;;;1.92;1.30;;;;;;;13.86;47.96;96894.75;5069636;28;20040;-62
2021/10/22 09:26:13;;;;;;;1.92;1.20;;;;;;;13.96;47.76;96888.28;5069441;28;20589;-63
2021/10/22 09:28:40;;;;;;;1.35;1.25;;;;;;;14.02;47.47;96883.53;5070093;28;20082;-63
2021/10/22 09:31:17;;;;;;;1.40;1.30;;;;;;;14.00;46.95;96870.56;5051148;28;20463;-64
2021/10/22 09:33:55;;;;;;;6.13;1.83;;;;;;;14.06;46.84;96861.28;5067771;28;20040;-62
2021/10/22 09:36:41;;;;;;;5.28;1.65;;;;;;;14.16;46.95;96828.16;5069639;28;20051;-61
2021/10/22 09:39:18;;;;;;;3.42;1.92;;;;;;;14.18;46.02;96857.94;5066127;28;20040;-61
2021/10/22 09:41:49;;;;;;;2.45;1.50;;;;;;;14.10;45.79;96864.09;5068997;28;20048;-61
2021/10/22 09:44:37;;;;;;;8.10;1.60;;;;;;;13.97;45.57;96859.75;5067986;28;20032;-62
2021/10/22 09:47:06;;;;;;;3.78;1.30;;;;;;;13.94;45.75;96874.50;5069049;28;20040;-62
2021/10/22 09:49:37;;;;;;;4.20;1.38;;;;;;;14.04;45.49;96862.72;5068197;28;20097;-63
2021/10/22 09:52:16;;;;;;;4.15;1.90;;;;;;;14.08;45.22;96893.69;5070132;28;20131;-62
2021/10/22 09:54:42;;;;;;;4.20;1.63;;;;;;;14.05;45.39;96880.25;5066417;28;20382;-63
2021/10/22 09:57:08;;;;;;;3.05;1.60;;;;;;;14.08;45.12;96875.03;5068500;28;20037;-67
2021/10/22 09:59:36;;;;;;;5.93;1.63;;;;;;;14.08;45.30;96872.38;5065328;28;20064;-66
2021/10/22 10:02:03;;;;;;;3.95;1.40;;;;;;;13.96;44.96;96877.63;5055443;28;20597;-65
2021/10/22 10:04:32;;;;;;;2.20;1.40;;;;;;;13.89;45.06;96869.34;5063689;28;20044;-64
2021/10/22 10:06:59;;;;;;;1.80;1.23;;;;;;;13.86;44.82;96873.44;5067210;28;20060;-64
2021/10/22 10:09:29;;;;;;;1.60;1.15;;;;;;;13.84;44.44;96846.34;5066524;28;20052;-64
2021/10/22 10:11:56;;;;;;;5.15;1.73;;;;;;;13.76;44.27;96862.34;5067489;28;20051;-65
2021/10/22 10:14:26;;;;;;;3.17;1.30;;;;;;;13.72;44.58;96883.50;5067635;28;20051;-65
2021/10/22 10:16:52;;;;;;;1.77;1.17;;;;;;;13.71;44.40;96891.84;5065093;28;20056;-65
2021/10/22 10:19:32;;;;;;;4.25;1.33;;;;;;;13.53;45.23;96987.69;5065537;28;20174;-63
2021/10/22 10:22:03;;;;;;;5.35;1.30;;;;;;;12.67;53.21;97004.31;5069540;28;20048;-64
2021/10/22 10:24:34;;;;;;;0.90;0.70;;;;;;;11.94;57.06;96999.34;5069728;28;20131;-63
2021/10/22 10:27:05;;;;;;;0.95;0.80;;;;;;;11.59;59.81;97012.38;5068473;28;20048;-63
2021/10/22 10:29:34;;;;;;;0.77;0.70;;;;;;;11.33;59.97;97014.03;5051007;28;20044;-62
2021/10/22 10:32:10;;;;;;;0.98;0.70;;;;;;;11.03;61.71;97032.19;5069640;28;20048;-61
2021/10/22 10:34:37;;;;;;;1.00;0.60;;;;;;;10.83;62.98;97027.31;5067832;28;20130;-62
2021/10/22 10:37:05;;;;;;;3.33;0.90;;;;;;;10.77;62.67;97039.09;5061193;28;20044;-62
2021/10/22 10:39:44;;;;;;;0.73;0.70;;;;;;;10.74;63.77;97052.94;5051136;28;20131;-62
2021/10/22 10:42:35;;;;;;;1.17;0.80;;;;;;;10.65;63.52;97056.25;5071701;28;20091;-63
2021/10/22 10:45:06;;;;;;;0.80;0.80;;;;;;;10.60;63.18;97068.81;5072682;28;20474;-62
2021/10/22 10:47:38;;;;;;;1.08;0.82;;;;;;;10.42;63.88;97063.31;5073959;28;20036;-63
2021/10/22 10:50:07;;;;;;;0.75;0.75;;;;;;;10.17;63.51;97064.50;5073327;28;20041;-62
2021/10/22 10:52:39;;;;;;;0.70;0.70;;;;;;;10.05;65.21;97088.00;5071740;28;20094;-62
2021/10/22 10:55:13;;;;;;;1.02;0.80;;;;;;;9.89;65.02;97091.97;5073489;28;20076;-62
2021/10/22 10:57:47;;;;;;;1.20;0.85;;;;;;;9.80;67.33;97088.41;5072919;28;20045;-63
2021/10/22 11:00:15;;;;;;;1.58;0.95;;;;;;;9.64;67.29;97085.19;5073069;28;20097;-62
2021/10/22 11:03:00;;;;;;;1.05;0.80;;;;;;;9.53;68.07;97079.28;5071173;28;20040;-62
2021/10/22 11:05:45;;;;;;;0.85;0.80;;;;;;;9.38;67.33;97068.91;5071590;28;20041;-63
2021/10/22 11:08:27;;;;;;;0.80;0.80;;;;;;;9.29;67.88;97084.63;5073113;28;20052;-62
2021/10/22 11:14:02;;;;;;;0.80;0.80;;;;;;;9.37;67.33;97067.34;5071985;28;20387;-63
2021/10/22 11:19:12;;;;;;;1.55;0.98;;;;;;;9.32;67.93;97050.50;5071640;28;20036;-62
2021/10/22 11:21:48;;;;;;;3.10;1.00;;;;;;;9.43;67.67;97051.13;5072101;28;20056;-64
2021/10/22 11:24:30;;;;;;;1.85;1.70;;;;;;;9.58;66.11;97073.91;5053143;28;20066;-64
2021/10/22 11:27:05;;;;;;;2.10;1.52;;;;;;;9.72;66.14;97080.06;5072532;28;20051;-63
2021/10/22 11:29:36;;;;;;;1.35;0.88;;;;;;;9.66;66.32;97098.94;5070372;28;20494;-63
2021/10/22 11:32:11;;;;;;;0.70;0.70;;;;;;;9.48;66.20;97108.44;5071952;28;20049;-63
2021/10/22 11:34:42;;;;;;;1.70;1.00;;;;;;;9.43;66.87;97116.44;5071903;28;20044;-62
2021/10/22 11:37:13;;;;;;;1.90;1.00;;;;;;;9.30;67.22;97115.28;5071276;28;20060;-62
2021/10/22 11:39:47;;;;;;;1.08;0.90;;;;;;;9.24;67.88;97116.44;5071083;28;20044;-61
2021/10/22 11:42:19;;;;;;;1.50;1.23;;;;;;;9.25;67.08;97115.34;5069734;28;20037;-61
2021/10/22 11:44:49;;;;;;;3.38;1.30;;;;;;;9.20;67.90;97116.19;5069232;28;20426;-60
2021/10/22 11:47:15;;;;;;;4.32;2.35;;;;;;;9.26;68.48;97115.06;5071860;28;20384;-65
2021/10/22 11:49:42;;;;;;;5.45;3.25;;;;;;;9.17;68.05;97111.47;5070393;28;20082;-62